Time;durP1;ratioP1;P1;durP2;ratioP2;P2;SDS_P1;SDS_P2;PMS_P1;PMS_P2;Temp;Humidity;BMP_temperature;BMP_pressure;BME280_temperature;BME280_humidity;BME280_pressure;Samples;Min_cycle;Max_cycle;Signal;HPM_P1;HPM_P2
2022/11/21 00:01:21;;;;;;;15.72;7.78;;;;;;;8.94;100.00;99991.20;1636671;88;21125;-76
2022/11/21 00:03:48;;;;;;;12.87;7.07;;;;;;;8.95;100.00;99986.67;1676041;84;21001;-74
2022/11/21 00:06:16;;;;;;;11.03;6.40;;;;;;;8.96;100.00;99985.65;1688121;85;21582;-75
2022/11/21 00:08:45;;;;;;;14.93;6.93;;;;;;;8.93;100.00;99983.63;1688200;85;21120;-76
2022/11/21 00:11:12;;;;;;;12.50;6.53;;;;;;;8.93;100.00;99985.48;1688344;85;21589;-76
2022/11/21 00:13:39;;;;;;;13.40;6.80;;;;;;;8.93;100.00;99989.02;1707885;83;21365;-75
2022/11/21 00:16:11;;;;;;;13.37;6.73;;;;;;;8.95;100.00;99987.51;1709783;83;21058;-75
2022/11/21 00:18:38;;;;;;;16.30;7.80;;;;;;;9.01;100.00;99975.22;1709732;84;21053;-75
2022/11/21 00:21:15;;;;;;;10.57;6.13;;;;;;;9.08;100.00;99982.52;1719875;82;21030;-75
2022/11/21 00:23:44;;;;;;;10.67;5.80;;;;;;;9.17;100.00;99976.66;1748484;82;21038;-75
2022/11/21 00:26:12;;;;;;;12.10;5.95;;;;;;;9.18;100.00;99974.79;1748855;82;21014;-76
2022/11/21 00:28:44;;;;;;;12.73;6.37;;;;;;;9.18;100.00;99978.33;1748780;82;21022;-74
2022/11/21 00:31:22;;;;;;;13.75;6.03;;;;;;;9.24;100.00;99977.69;1748874;81;20987;-74
2022/11/21 00:33:50;;;;;;;11.05;5.83;;;;;;;9.28;100.00;99977.69;1748593;82;21473;-76
2022/11/21 00:36:19;;;;;;;16.15;6.90;;;;;;;9.34;100.00;99973.48;1748798;82;21003;-75
2022/11/21 00:38:45;;;;;;;14.03;7.00;;;;;;;9.39;100.00;99968.44;1748776;82;20999;-76
2022/11/21 00:41:12;;;;;;;13.43;7.03;;;;;;;9.44;100.00;99971.48;1749023;82;21050;-75
2022/11/21 00:43:38;;;;;;;14.87;6.65;;;;;;;9.47;100.00;99978.39;1748644;82;21030;-76
2022/11/21 00:46:07;;;;;;;16.77;7.08;;;;;;;9.50;100.00;99968.63;1748935;82;21038;-75
2022/11/21 00:48:34;;;;;;;15.45;7.03;;;;;;;9.51;100.00;99973.03;1748615;82;20998;-75
2022/11/21 00:51:01;;;;;;;14.07;6.72;;;;;;;9.55;100.00;99970.33;1748617;82;21030;-76
2022/11/21 00:53:28;;;;;;;13.05;6.40;;;;;;;9.57;100.00;99968.30;1748750;82;21535;-74
2022/11/21 00:55:54;;;;;;;11.15;5.97;;;;;;;9.60;100.00;99942.84;1748998;82;21488;-75
2022/11/21 00:58:22;;;;;;;8.50;5.40;;;;;;;9.64;100.00;99954.98;1748626;82;20986;-76
2022/11/21 01:00:49;;;;;;;13.22;6.53;;;;;;;9.64;100.00;99954.47;1748585;82;21065;-74
2022/11/21 01:03:16;;;;;;;12.57;6.90;;;;;;;9.67;100.00;99961.41;1748860;82;21149;-76
2022/11/21 01:05:43;;;;;;;11.05;5.92;;;;;;;9.69;100.00;99959.38;1748852;82;21062;-75
2022/11/21 01:08:10;;;;;;;12.85;6.15;;;;;;;9.71;100.00;99939.80;1748667;82;21085;-75
2022/11/21 01:10:36;;;;;;;11.73;5.75;;;;;;;9.73;100.00;99932.37;1748839;82;21070;-74
2022/11/21 01:13:04;;;;;;;10.48;6.53;;;;;;;9.74;100.00;99938.61;1748703;82;21073;-75
2022/11/21 01:15:30;;;;;;;11.28;5.95;;;;;;;9.77;100.00;99931.02;1748537;81;21069;-75
2022/11/21 01:17:58;;;;;;;11.68;6.05;;;;;;;9.80;100.00;99925.80;1748630;82;21019;-74
2022/11/21 01:20:25;;;;;;;10.40;5.97;;;;;;;9.83;100.00;99924.95;1748639;82;21074;-76
2022/11/21 01:22:53;;;;;;;10.70;5.42;;;;;;;9.84;100.00;99932.55;1742070;82;21010;-75
2022/11/21 01:25:22;;;;;;;9.65;5.55;;;;;;;9.84;100.00;99944.70;1741445;82;21095;-75
2022/11/21 01:27:49;;;;;;;10.85;5.47;;;;;;;9.83;100.00;99931.70;1741185;82;21078;-75
2022/11/21 01:30:16;;;;;;;9.38;5.55;;;;;;;9.82;100.00;99917.85;1741148;82;21532;-74
2022/11/21 01:32:49;;;;;;;10.28;5.90;;;;;;;9.83;100.00;99943.02;1741171;82;21046;-74
2022/11/21 01:35:16;;;;;;;10.27;6.47;;;;;;;9.81;100.00;99953.99;1738951;82;21026;-75
2022/11/21 01:37:48;;;;;;;12.13;6.42;;;;;;;9.81;100.00;99953.99;1741363;82;21539;-75
2022/11/21 01:40:15;;;;;;;9.45;5.50;;;;;;;9.84;100.00;99960.90;1741410;82;20987;-75
2022/11/21 01:42:53;;;;;;;10.15;5.37;;;;;;;9.86;100.00;99934.56;1741074;82;21107;-76
2022/11/21 01:45:50;;;;;;;8.35;5.28;;;;;;;9.85;100.00;99932.89;1741454;82;21516;-76
2022/11/21 01:48:17;;;;;;;9.63;5.47;;;;;;;9.86;100.00;99927.33;1725908;83;21095;-74
2022/11/21 01:50:44;;;;;;;10.10;6.12;;;;;;;9.89;100.00;99916.16;1726060;83;21023;-75
2022/11/21 01:53:11;;;;;;;9.28;5.95;;;;;;;9.91;100.00;99932.72;1726179;83;21055;-73
2022/11/21 01:55:40;;;;;;;7.30;5.00;;;;;;;9.92;100.00;99922.27;1725957;83;21036;-75
2022/11/21 01:58:07;;;;;;;5.42;3.85;;;;;;;9.88;100.00;99922.59;1726234;83;21485;-73
2022/11/21 02:00:37;;;;;;;8.48;4.37;;;;;;;9.83;100.00;99910.63;1725937;83;21055;-74
2022/11/21 02:03:08;;;;;;;7.95;4.50;;;;;;;9.81;100.00;99897.28;1726135;83;21015;-73
2022/11/21 02:05:35;;;;;;;8.78;4.72;;;;;;;9.80;100.00;99906.38;1726105;83;21035;-75
2022/11/21 02:08:08;;;;;;;8.95;4.87;;;;;;;9.79;100.00;99903.36;1726110;83;21074;-74
2022/11/21 02:10:35;;;;;;;9.73;4.60;;;;;;;9.79;100.00;99916.86;1672780;85;21021;-75
2022/11/21 02:13:02;;;;;;;9.03;4.78;;;;;;;9.78;100.00;99920.56;1665694;86;21066;-74
2022/11/21 02:15:30;;;;;;;6.12;4.37;;;;;;;9.80;100.00;99937.44;1665550;86;21054;-75
2022/11/21 02:17:57;;;;;;;7.60;4.75;;;;;;;9.85;100.00;99917.52;1665693;86;21046;-76
2022/11/21 02:20:26;;;;;;;7.62;4.60;;;;;;;9.84;100.00;99938.81;1665912;86;21023;-74
2022/11/21 02:23:20;;;;;;;7.70;4.65;;;;;;;9.84;100.00;99947.39;1687261;83;21077;-74
2022/11/21 02:25:46;;;;;;;6.35;4.47;;;;;;;9.84;100.00;99935.24;1713363;83;21073;-75
2022/11/21 02:28:15;;;;;;;4.92;3.83;;;;;;;9.87;100.00;99929.00;1696704;84;21515;-75
2022/11/21 02:30:43;;;;;;;7.47;4.33;;;;;;;9.86;100.00;99906.20;1710393;83;20995;-75
2022/11/21 02:33:10;;;;;;;8.63;4.20;;;;;;;9.87;100.00;99911.44;1710182;84;21073;-76
2022/11/21 02:35:37;;;;;;;6.05;4.12;;;;;;;9.89;100.00;99874.81;1710430;84;21559;-76
2022/11/21 02:38:17;;;;;;;7.37;4.83;;;;;;;9.86;100.00;99882.77;1710348;84;21078;-76
2022/11/21 02:41:06;;;;;;;11.97;6.60;;;;;;;9.86;100.00;99888.17;1710456;84;21527;-76
2022/11/21 02:43:47;;;;;;;8.80;5.72;;;;;;;9.86;100.00;99896.75;1710164;83;21133;-76
2022/11/21 02:46:14;;;;;;;7.72;5.15;;;;;;;9.89;100.00;99894.55;1710288;84;21492;-77
2022/11/21 02:48:41;;;;;;;7.33;4.72;;;;;;;9.89;100.00;99888.31;1710217;84;21097;-77
2022/11/21 02:51:08;;;;;;;6.50;4.53;;;;;;;9.91;100.00;99901.66;1710451;84;21021;-76
2022/11/21 02:53:35;;;;;;;9.10;4.97;;;;;;;9.92;100.00;99902.84;1710157;83;21007;-75
2022/11/21 02:56:03;;;;;;;8.40;4.70;;;;;;;9.93;100.00;99904.51;1710490;84;21536;-76
2022/11/21 02:58:29;;;;;;;8.90;5.30;;;;;;;9.94;100.00;99901.33;1710526;84;21409;-77
2022/11/21 03:00:56;;;;;;;9.88;5.25;;;;;;;9.95;100.00;99899.81;1710462;84;21460;-77
2022/11/21 03:03:23;;;;;;;9.25;5.15;;;;;;;9.97;100.00;99892.38;1710465;84;21018;-77
2022/11/21 03:05:50;;;;;;;8.33;4.60;;;;;;;9.99;100.00;99894.91;1710177;84;21549;-76
2022/11/21 03:08:17;;;;;;;6.70;4.62;;;;;;;9.99;100.00;99888.98;1730619;83;21054;-77
2022/11/21 03:10:47;;;;;;;10.48;4.85;;;;;;;10.00;100.00;99872.27;1751954;82;21026;-75
2022/11/21 03:13:14;;;;;;;7.00;4.85;;;;;;;10.01;100.00;99873.97;1752333;82;21547;-76
2022/11/21 03:15:41;;;;;;;6.55;4.37;;;;;;;10.01;100.00;99873.45;1751939;82;21045;-75
2022/11/21 03:18:08;;;;;;;7.00;4.78;;;;;;;10.01;100.00;99885.61;1752213;82;21503;-75
2022/11/21 03:20:35;;;;;;;7.58;5.12;;;;;;;10.03;100.00;99890.84;1751964;82;21504;-77
2022/11/21 03:23:03;;;;;;;7.25;4.50;;;;;;;10.01;100.00;99892.36;1744104;82;21034;-76
2022/11/21 03:25:30;;;;;;;6.87;4.25;;;;;;;9.98;100.00;99878.35;1741402;82;21038;-75
2022/11/21 03:27:58;;;;;;;7.10;4.80;;;;;;;9.96;100.00;99886.63;1741727;82;21034;-76
2022/11/21 03:30:26;;;;;;;6.67;4.05;;;;;;;9.95;100.00;99883.60;1741399;82;21038;-76
2022/11/21 03:32:56;;;;;;;6.67;4.20;;;;;;;9.95;100.00;99880.90;1741633;82;21006;-75
2022/11/21 03:35:23;;;;;;;8.53;4.97;;;;;;;9.96;100.00;99887.14;1741357;82;21050;-76
2022/11/21 03:37:51;;;;;;;6.15;4.70;;;;;;;9.97;100.00;99892.38;1741718;82;21046;-75
2022/11/21 03:40:17;;;;;;;7.83;4.92;;;;;;;9.97;100.00;99892.86;1741326;82;21003;-75
2022/11/21 03:42:45;;;;;;;10.25;5.53;;;;;;;9.95;100.00;99917.84;1741805;82;21026;-74
2022/11/21 03:45:13;;;;;;;9.15;5.42;;;;;;;9.85;100.00;99929.67;1741535;82;21043;-75
2022/11/21 03:47:40;;;;;;;8.73;5.42;;;;;;;9.77;100.00;99918.86;1741365;82;21468;-75
2022/11/21 03:50:08;;;;;;;6.20;4.35;;;;;;;9.66;100.00;99922.75;1741702;82;21046;-74
2022/11/21 03:52:35;;;;;;;8.60;4.83;;;;;;;9.53;100.00;99930.52;1741454;82;21007;-75
2022/11/21 03:55:03;;;;;;;6.83;4.42;;;;;;;9.43;100.00;99937.91;1741329;82;21043;-75
2022/11/21 03:57:30;;;;;;;8.55;4.55;;;;;;;9.25;100.00;99949.67;1741327;82;21046;-75
2022/11/21 03:59:57;;;;;;;12.00;4.78;;;;;;;8.97;100.00;99925.33;1741395;82;21038;-76
2022/11/21 04:02:23;;;;;;;9.70;4.40;;;;;;;8.48;100.00;99923.25;1741632;82;21009;-74
2022/11/21 10:35:42;;;;;;;43.23;19.37;;;;;;;8.48;100.00;99761.09;1645042;87;21094;-78
2022/11/21 10:38:25;;;;;;;40.30;17.43;;;;;;;8.50;100.00;99739.38;1666761;85;21003;-76
2022/11/21 10:41:08;;;;;;;39.10;16.90;;;;;;;8.52;100.00;99739.53;1650238;87;21077;-76
2022/11/21 10:46:29;;;;;;;40.03;20.80;;;;;;;8.50;100.00;99758.23;1662690;86;21133;-76
2022/11/21 10:48:59;;;;;;;34.87;16.87;;;;;;;8.51;100.00;99755.86;1662807;86;21065;-78
2022/11/21 10:52:11;;;;;;;30.17;14.90;;;;;;;8.53;100.00;99742.58;1608855;89;21142;-76
2022/11/21 10:54:53;;;;;;;41.17;16.70;;;;;;;8.57;100.00;99739.53;1599323;89;21074;-74
2022/11/21 10:57:21;;;;;;;46.10;20.27;;;;;;;8.57;100.00;99744.44;1436426;98;21110;-73
2022/11/21 11:00:14;;;;;;;58.13;24.63;;;;;;;8.59;100.00;99741.55;1442144;100;21650;-75
2022/11/21 11:02:44;;;;;;;46.48;20.95;;;;;;;8.57;100.00;99747.13;1442649;100;21183;-80
2022/11/21 11:05:24;;;;;;;55.07;23.50;;;;;;;8.53;100.00;99739.02;1442644;98;21163;-78
2022/11/21 11:08:10;;;;;;;54.90;23.73;;;;;;;8.50;100.00;99735.33;1443946;99;21168;-77
2022/11/21 11:10:44;;;;;;;54.17;23.53;;;;;;;8.46;100.00;99722.66;1434391;100;21641;-81
2022/11/21 11:13:32;;;;;;;;;;;;;;;8.43;100.00;99724.84;1437225;100;21150;-78
2022/11/21 11:16:15;;;;;;;50.70;21.73;;;;;;;8.40;100.00;99725.16;1418909;101;20129;-79
2022/11/21 11:19:00;;;;;;;46.10;20.23;;;;;;;8.36;100.00;99720.61;1428142;100;21127;-78
2022/11/21 11:21:29;;;;;;;44.83;20.33;;;;;;;8.34;100.00;99716.73;1424610;101;21126;-77
2022/11/21 11:24:16;;;;;;;43.77;19.73;;;;;;;8.32;100.00;99718.75;1424472;101;21156;-77
2022/11/21 11:26:51;;;;;;;43.47;19.30;;;;;;;8.29;100.00;99708.80;1407793;101;21156;-83
2022/11/21 11:29:27;;;;;;;44.53;19.73;;;;;;;8.26;100.00;99695.66;1403505;102;21175;-78
2022/11/21 11:32:05;;;;;;;41.83;17.50;;;;;;;8.20;100.00;99685.53;1384581;103;21192;-78
2022/11/21 11:34:39;;;;;;;44.13;19.47;;;;;;;8.13;100.00;99675.42;1429146;97;21085;-78
2022/11/21 11:37:16;;;;;;;45.05;19.95;;;;;;;8.03;100.00;99667.15;1464100;96;21200;-80
2022/11/21 11:40:14;;;;;;;45.00;17.97;;;;;;;7.92;100.00;99665.60;1400475;103;21206;-78
2022/11/21 11:49:11;;;;;;;42.63;18.53;;;;;;;7.56;100.00;99653.18;1420336;101;21149;-76
2022/11/21 11:51:44;;;;;;;40.60;17.30;;;;;;;7.50;100.00;99655.66;1411745;102;21200;-75
2022/11/21 11:54:24;;;;;;;42.03;17.53;;;;;;;7.45;100.00;99656.13;1447004;99;21247;-73
2022/11/21 11:56:51;;;;;;;36.57;16.17;;;;;;;7.43;100.00;99653.28;1379871;104;21130;-72
2022/11/21 11:59:35;;;;;;;37.40;15.77;;;;;;;7.40;100.00;99666.53;1403203;101;21576;-73
2022/11/21 12:02:14;;;;;;;37.20;15.67;;;;;;;7.41;100.00;99678.98;1401279;102;21193;-76
2022/11/21 12:04:53;;;;;;;48.40;18.50;;;;;;;7.42;100.00;99691.45;1398823;102;21215;-75
2022/11/21 12:07:32;;;;;;;48.73;19.77;;;;;;;7.45;100.00;99699.17;1401245;102;21129;-75
2022/11/21 12:10:20;;;;;;;50.97;18.53;;;;;;;7.48;100.00;99699.38;1458755;95;21051;-72
2022/11/21 12:12:53;;;;;;;40.07;17.77;;;;;;;7.47;100.00;99697.67;1464269;96;21095;-71
2022/11/21 12:18:26;;;;;;;38.43;16.67;;;;;;;7.49;100.00;99679.52;1499101;95;21074;-75
2022/11/21 12:21:04;;;;;;;44.70;17.97;;;;;;;7.51;100.00;99668.13;1499050;95;21064;-74
2022/11/21 12:23:52;;;;;;;49.30;22.33;;;;;;;7.54;100.00;99657.02;1501561;95;21510;-74
2022/11/21 12:26:56;;;;;;;42.00;17.27;;;;;;;7.57;100.00;99648.13;1483850;97;21156;-74
2022/11/21 12:30:09;;;;;;;41.57;16.27;;;;;;;7.63;100.00;99635.03;1497599;94;21113;-75
2022/11/21 12:32:59;;;;;;;36.77;16.40;;;;;;;7.67;100.00;99641.80;1501406;93;21111;-75
2022/11/21 12:36:01;;;;;;;32.93;14.03;;;;;;;7.73;100.00;99652.73;1504131;94;21199;-74
2022/11/21 12:39:00;;;;;;;34.47;14.57;;;;;;;7.80;100.00;99661.01;1503713;94;21103;-74
2022/11/21 12:45:04;;;;;;;32.07;15.13;;;;;;;7.91;100.00;99666.59;1503683;95;21150;-75
2022/11/21 12:54:29;;;;;;;35.97;14.00;;;;;;;8.03;100.00;99640.22;1429953;99;21220;-74
2022/11/21 12:57:12;;;;;;;31.60;14.00;;;;;;;8.10;100.00;99647.98;1467546;96;21087;-74
2022/11/21 13:00:18;;;;;;;34.78;14.83;;;;;;;8.15;100.00;99640.25;1467964;96;21094;-76
2022/11/21 13:03:09;;;;;;;34.73;13.60;;;;;;;8.21;100.00;99647.66;1467573;97;21146;-74
2022/11/21 13:05:41;;;;;;;32.67;15.53;;;;;;;8.28;100.00;99649.19;1459065;98;21160;-73
2022/11/21 13:08:18;;;;;;;25.23;12.03;;;;;;;8.35;100.00;99660.47;1467999;97;21118;-76
2022/11/21 13:14:13;;;;;;;27.03;11.20;;;;;;;8.49;100.00;99668.95;1511390;94;21114;-73
2022/11/21 13:16:45;;;;;;;30.97;15.45;;;;;;;8.57;100.00;99670.33;1533049;93;21085;-74
2022/11/21 13:19:17;;;;;;;27.57;13.07;;;;;;;8.65;100.00;99667.61;1533782;94;21142;-74
2022/11/21 13:21:51;;;;;;;26.20;12.13;;;;;;;8.71;100.00;99674.18;1531552;94;21090;-75
2022/11/21 13:24:49;;;;;;;26.35;12.88;;;;;;;8.78;100.00;99682.45;1533548;91;21110;-73
2022/11/21 13:27:38;;;;;;;26.63;13.37;;;;;;;8.83;100.00;99694.92;1533804;93;21126;-72
2022/11/21 13:30:14;;;;;;;34.27;14.90;;;;;;;8.89;100.00;99696.95;1547532;86;21088;-75
2022/11/21 13:32:44;;;;;;;32.60;13.00;;;;;;;8.95;100.00;99702.17;1673821;84;21074;-74
2022/11/21 13:35:24;;;;;;;40.47;17.50;;;;;;;9.02;100.00;99712.11;1686386;85;21071;-73
2022/11/21 13:38:02;;;;;;;34.03;14.40;;;;;;;9.10;100.00;99713.95;1682645;84;21457;-74
2022/11/21 13:40:35;;;;;;;31.70;14.43;;;;;;;9.19;100.00;99718.35;1670589;86;21078;-72
2022/11/21 13:43:22;;;;;;;31.80;13.43;;;;;;;9.28;100.00;99721.88;1671326;86;21125;-74
2022/11/21 13:45:51;;;;;;;29.47;13.80;;;;;;;9.37;100.00;99719.50;1670194;86;21114;-73
2022/11/21 13:48:33;;;;;;;27.57;12.07;;;;;;;9.45;100.00;99723.52;1670730;86;21058;-72
2022/11/21 13:51:23;;;;;;;26.00;12.00;;;;;;;9.53;100.00;99725.89;1670377;86;21129;-73
2022/11/21 13:54:22;;;;;;;26.80;11.57;;;;;;;9.60;100.00;99720.14;1595054;89;21107;-76
2022/11/21 13:57:06;;;;;;;24.92;11.80;;;;;;;9.65;100.00;99713.69;1615091;89;21134;-77
2022/11/21 14:00:15;;;;;;;23.47;11.03;;;;;;;9.68;100.00;99718.75;1601480;89;21145;-78
2022/11/21 14:03:30;;;;;;;23.10;10.70;;;;;;;9.69;100.00;99722.62;1590770;90;21109;-77
2022/11/21 14:06:22;;;;;;;24.27;10.65;;;;;;;9.73;100.00;99720.94;1591626;89;21001;-78
2022/11/21 14:09:13;;;;;;;28.13;12.17;;;;;;;9.79;100.00;99729.20;1549041;92;21781;-77
2022/11/21 14:11:48;;;;;;;23.52;11.43;;;;;;;9.84;100.00;99727.30;1506255;95;21121;-77
2022/11/21 14:14:30;;;;;;;25.57;10.35;;;;;;;9.91;100.00;99726.11;1505756;95;21080;-76
2022/11/21 14:17:25;;;;;;;25.97;11.53;;;;;;;9.96;100.00;99721.03;1460263;98;21088;-76
2022/11/21 14:19:54;;;;;;;23.18;10.45;;;;;;;10.02;100.00;99723.02;1460174;98;21533;-75
2022/11/21 14:22:29;;;;;;;23.83;10.95;;;;;;;10.05;100.00;99714.05;1460088;98;21128;-75
2022/11/21 14:40:42;;;;;;;24.02;10.28;;;;;;;10.45;100.00;99773.02;1837979;77;22574;-78
2022/11/21 14:43:31;;;;;;;23.70;11.75;;;;;;;10.48;100.00;99635.81;1804888;79;21496;-76
2022/11/21 14:45:58;;;;;;;24.65;11.12;;;;;;;10.47;100.00;99631.45;1702974;84;21044;-78
2022/11/21 14:48:29;;;;;;;23.77;10.30;;;;;;;10.45;100.00;99624.87;1703518;84;21006;-72
2022/11/21 14:50:58;;;;;;;21.27;8.80;;;;;;;10.44;100.00;99629.41;1698737;84;20979;-72
2022/11/21 14:53:26;;;;;;;23.15;9.05;;;;;;;10.44;100.00;99624.52;1663166;86;21132;-71
2022/11/21 14:55:52;;;;;;;27.45;10.63;;;;;;;10.47;100.00;99631.45;1663456;86;21515;-72
2022/11/21 14:58:20;;;;;;;22.30;10.38;;;;;;;10.47;100.00;99624.17;1694323;85;21159;-73
2022/11/21 15:01:07;;;;;;;26.85;9.10;;;;;;;10.48;100.00;99623.12;1694586;85;21159;-73
2022/11/21 15:03:35;;;;;;;26.57;9.28;;;;;;;10.51;100.00;99612.48;1694258;85;21114;-73
2022/11/21 15:06:04;;;;;;;17.87;8.68;;;;;;;10.54;100.00;99609.42;1663371;86;21475;-74
2022/11/21 15:08:33;;;;;;;20.60;8.38;;;;;;;10.57;100.00;99615.31;1663101;86;21049;-74
2022/11/21 15:10:59;;;;;;;16.60;6.85;;;;;;;10.60;100.00;99618.15;1663348;86;21057;-73
2022/11/21 15:13:29;;;;;;;18.25;7.15;;;;;;;10.61;100.00;99603.10;1669241;84;21014;-74
2022/11/21 15:15:59;;;;;;;20.62;7.90;;;;;;;10.63;100.00;99594.81;1699794;84;21538;-74
2022/11/21 15:18:29;;;;;;;19.55;7.60;;;;;;;10.68;100.00;99595.11;1676989;84;21092;-72
2022/11/21 15:21:01;;;;;;;18.55;7.50;;;;;;;10.73;100.00;99595.89;1700039;84;20997;-72
2022/11/21 15:23:38;;;;;;;21.30;7.95;;;;;;;10.77;100.00;99591.82;1644795;86;21119;-81
2022/11/21 15:26:05;;;;;;;21.97;8.45;;;;;;;10.79;100.00;99598.71;1625251;88;21088;-73
2022/11/21 15:28:41;;;;;;;17.40;7.53;;;;;;;10.80;100.00;99600.41;1652931;87;21057;-73
2022/11/21 15:31:20;;;;;;;16.77;7.08;;;;;;;10.81;100.00;99601.23;1501101;96;21173;-73
2022/11/21 15:33:57;;;;;;;23.00;7.25;;;;;;;10.81;100.00;99599.36;1501970;96;21554;-73
2022/11/21 15:36:25;;;;;;;20.12;7.83;;;;;;;10.81;100.00;99588.55;1502039;96;21116;-74
2022/11/21 15:39:10;;;;;;;19.73;8.20;;;;;;;10.83;100.00;99572.14;1499784;95;21164;-73
2022/11/21 15:41:37;;;;;;;19.37;7.35;;;;;;;10.84;100.00;99583.30;1490714;94;21177;-73
2022/11/21 15:44:10;;;;;;;19.12;7.53;;;;;;;10.85;100.00;99580.07;1516777;94;21112;-73
2022/11/21 15:46:40;;;;;;;18.02;7.15;;;;;;;10.84;100.00;99581.95;1516978;94;21148;-74
2022/11/21 15:49:09;;;;;;;18.65;7.30;;;;;;;10.85;100.00;99585.48;1516827;94;21135;-74
2022/11/21 15:51:42;;;;;;;15.35;6.17;;;;;;;10.88;100.00;99584.59;1516060;94;21135;-74
2022/11/21 15:54:17;;;;;;;;;;;;;;;10.87;100.00;99581.59;1518942;94;21690;-73
2022/11/21 15:56:43;;;;;;;17.85;6.00;;;;;;;10.91;100.00;99575.30;1517849;94;20138;-74
2022/11/21 15:59:10;;;;;;;18.05;5.83;;;;;;;10.91;100.00;99568.02;1518474;94;21085;-74
2022/11/21 16:01:37;;;;;;;18.87;6.58;;;;;;;10.93;100.00;99567.31;1518314;94;21156;-74
2022/11/21 16:04:08;;;;;;;16.48;5.47;;;;;;;10.97;100.00;99565.08;1518472;94;21093;-74
2022/11/21 16:06:34;;;;;;;16.23;5.62;;;;;;;11.01;100.00;99566.37;1518500;94;21577;-73
2022/11/21 16:09:02;;;;;;;22.90;6.17;;;;;;;11.05;100.00;99558.73;1551371;92;21081;-73
2022/11/21 16:11:39;;;;;;;19.10;6.17;;;;;;;11.09;100.00;99555.47;1566806;92;21097;-73
2022/11/21 16:14:07;;;;;;;20.48;6.28;;;;;;;11.12;100.00;99556.95;1538389;93;21161;-74
2022/11/21 16:16:39;;;;;;;23.10;6.40;;;;;;;11.15;100.00;99556.06;1527800;94;21173;-73
2022/11/21 16:19:06;;;;;;;16.75;5.37;;;;;;;11.21;100.00;99558.56;1528383;93;21074;-73
2022/11/21 16:21:35;;;;;;;20.23;5.35;;;;;;;11.26;100.00;99552.08;1537389;93;21185;-73
2022/11/21 16:24:02;;;;;;;17.57;5.35;;;;;;;11.31;100.00;99559.62;1518415;93;21155;-73
2022/11/21 16:26:29;;;;;;;18.92;5.62;;;;;;;11.35;100.00;99558.20;1537364;93;21173;-76
2022/11/21 16:28:57;;;;;;;14.58;5.25;;;;;;;11.40;100.00;99554.42;1661880;86;21072;-73
2022/11/21 16:31:26;;;;;;;20.08;5.85;;;;;;;11.46;100.00;99565.86;1671228;86;21016;-72
2022/11/21 16:33:54;;;;;;;18.87;6.67;;;;;;;11.49;100.00;99563.28;1671245;86;21032;-73
2022/11/21 16:36:23;;;;;;;19.48;7.12;;;;;;;11.54;100.00;99555.44;1671271;86;21083;-73
2022/11/21 16:38:50;;;;;;;24.02;7.75;;;;;;;11.56;100.00;99546.60;1674090;83;21508;-73
2022/11/21 16:41:18;;;;;;;23.65;6.92;;;;;;;11.58;100.00;99529.16;1734813;83;21021;-72
2022/11/21 16:43:52;;;;;;;18.92;6.00;;;;;;;11.61;100.00;99532.51;1735050;83;21132;-72
2022/11/21 16:46:22;;;;;;;21.12;6.65;;;;;;;11.64;100.00;99528.91;1735093;83;21034;-72
2022/11/21 16:48:49;;;;;;;19.07;6.03;;;;;;;11.68;100.00;99517.17;1734770;83;21564;-71
2022/11/21 16:51:18;;;;;;;20.05;6.00;;;;;;;11.70;100.00;99514.58;1687285;83;20970;-72
2022/11/21 16:53:46;;;;;;;20.45;6.97;;;;;;;11.73;100.00;99507.97;1707049;84;21092;-72
2022/11/21 16:56:15;;;;;;;15.88;5.70;;;;;;;11.74;100.00;99506.42;1707087;84;21065;-72
2022/11/21 16:58:41;;;;;;;18.27;5.55;;;;;;;11.75;100.00;99500.48;1706928;84;21078;-73
2022/11/21 17:01:17;;;;;;;15.98;5.25;;;;;;;11.74;100.00;99492.05;1706847;84;21093;-72
2022/11/21 17:03:46;;;;;;;17.42;5.42;;;;;;;11.73;100.00;99487.12;1707140;84;20962;-72
2022/11/21 17:06:15;;;;;;;17.98;5.20;;;;;;;11.74;100.00;99482.57;1707151;84;21018;-72
2022/11/21 17:08:42;;;;;;;24.90;5.53;;;;;;;11.75;100.00;99486.41;1707045;84;21546;-72
2022/11/21 17:11:19;;;;;;;15.32;4.72;;;;;;;11.74;100.00;99486.63;1699704;84;21071;-72
2022/11/21 17:13:49;;;;;;;21.10;5.45;;;;;;;11.73;100.00;99480.88;1695798;85;21021;-72
2022/11/21 17:16:18;;;;;;;11.60;4.42;;;;;;;11.74;100.00;99477.16;1695655;85;21064;-72
2022/11/21 17:18:45;;;;;;;14.60;5.08;;;;;;;11.75;100.00;99470.16;1695858;85;20989;-72
2022/11/21 17:21:15;;;;;;;21.75;7.42;;;;;;;11.74;100.00;99465.80;1695549;85;21171;-72
2022/11/21 17:23:43;;;;;;;20.15;5.25;;;;;;;11.75;100.00;99473.40;1695789;85;21009;-72
2022/11/21 17:26:12;;;;;;;18.60;4.62;;;;;;;11.75;100.00;99465.27;1695541;85;21056;-72
2022/11/21 17:28:39;;;;;;;18.17;5.08;;;;;;;11.76;100.00;99461.55;1695720;85;21089;-72
2022/11/21 17:31:07;;;;;;;19.37;4.87;;;;;;;11.77;100.00;99466.77;1695505;85;21013;-72
2022/11/21 17:33:34;;;;;;;13.03;4.60;;;;;;;11.77;100.00;99469.48;1695735;83;21049;-72
2022/11/21 17:36:04;;;;;;;18.00;5.00;;;;;;;11.78;100.00;99470.31;1695545;85;21080;-73
2022/11/21 17:38:31;;;;;;;18.65;4.87;;;;;;;11.79;100.00;99453.01;1638345;88;21046;-73
2022/11/21 17:41:03;;;;;;;17.23;4.78;;;;;;;11.80;100.00;99447.09;1638116;88;21587;-72
2022/11/21 17:43:29;;;;;;;15.53;4.62;;;;;;;11.82;100.00;99446.38;1592315;90;21129;-73
2022/11/21 17:46:04;;;;;;;12.15;4.75;;;;;;;11.84;100.00;99447.02;1592074;90;21085;-73
2022/11/21 17:48:34;;;;;;;21.45;5.00;;;;;;;11.86;100.00;99439.53;1592426;90;21057;-73
2022/11/21 17:51:08;;;;;;;16.67;4.87;;;;;;;11.89;100.00;99429.67;1632622;87;21130;-73
2022/11/21 17:53:38;;;;;;;17.15;5.40;;;;;;;11.92;100.00;99422.55;1650622;87;21067;-72
2022/11/21 17:56:06;;;;;;;17.73;5.90;;;;;;;11.99;100.00;99415.81;1650495;87;21153;-72
2022/11/21 17:58:34;;;;;;;12.63;5.08;;;;;;;12.08;100.00;99413.30;1650621;87;21564;-72
2022/11/21 18:01:02;;;;;;;18.67;5.25;;;;;;;12.14;100.00;99406.56;1650416;87;21047;-72
2022/11/21 18:03:31;;;;;;;22.62;5.58;;;;;;;12.21;100.00;99386.81;1650806;87;21150;-72
2022/11/21 18:06:07;;;;;;;16.52;5.85;;;;;;;12.27;100.00;99383.30;1650534;87;21094;-72
2022/11/21 18:08:39;;;;;;;19.48;4.90;;;;;;;12.33;100.00;99368.44;1650668;87;21070;-72
2022/11/21 18:11:07;;;;;;;18.75;5.10;;;;;;;12.38;100.00;99346.17;1583944;91;21624;-72
2022/11/21 18:13:34;;;;;;;21.00;5.65;;;;;;;12.40;100.00;99336.48;1584031;91;21098;-72
2022/11/21 21:13:04;;;;;;;10.93;4.12;;;;;;;12.15;100.00;99176.54;1793596;80;23466;-78
2022/11/21 21:15:32;;;;;;;14.55;3.65;;;;;;;12.24;100.00;99219.73;1734057;83;21490;-78
2022/11/21 21:17:59;;;;;;;10.98;3.90;;;;;;;12.28;100.00;99270.61;1733909;82;21494;-80
2022/11/21 21:20:29;;;;;;;14.75;4.22;;;;;;;12.28;100.00;99281.98;1702851;84;21081;-79
2022/11/21 21:22:56;;;;;;;16.90;4.60;;;;;;;12.31;100.00;99300.56;1733908;83;21103;-79
2022/11/21 21:25:23;;;;;;;14.25;4.62;;;;;;;12.31;100.00;99303.28;1734104;83;21057;-78
2022/11/21 21:27:50;;;;;;;14.85;4.33;;;;;;;12.30;100.00;99312.44;1705411;83;21030;-80
2022/11/21 21:30:17;;;;;;;13.28;4.20;;;;;;;12.28;100.00;99317.22;1733857;82;21025;-79
2022/11/21 21:32:44;;;;;;;7.42;4.12;;;;;;;12.26;100.00;99310.64;1733711;83;21061;-77
2022/11/21 21:35:11;;;;;;;20.62;4.92;;;;;;;12.20;100.00;99300.62;1733576;83;21096;-79
2022/11/21 21:37:38;;;;;;;11.65;4.25;;;;;;;12.18;100.00;99291.82;1734224;83;21486;-80
2022/11/21 21:40:07;;;;;;;12.60;3.83;;;;;;;12.14;100.00;99287.32;1733889;83;21538;-78
2022/11/21 21:42:34;;;;;;;13.40;3.75;;;;;;;12.09;100.00;99289.82;1733953;83;21057;-78
2022/11/21 21:45:01;;;;;;;12.47;3.85;;;;;;;12.05;100.00;99284.98;1734101;83;21010;-79
2022/11/21 21:47:28;;;;;;;14.53;4.28;;;;;;;12.01;100.00;99282.36;1734120;83;21029;-77
2022/11/21 21:49:54;;;;;;;12.68;3.58;;;;;;;12.01;100.00;99291.84;1733925;83;21017;-77
2022/11/21 21:52:22;;;;;;;12.28;3.90;;;;;;;11.98;100.00;99283.58;1703008;84;21064;-78
2022/11/21 21:54:48;;;;;;;14.58;4.10;;;;;;;11.98;100.00;99284.11;1733902;81;21028;-78
2022/11/21 21:57:15;;;;;;;11.83;4.62;;;;;;;11.96;100.00;99292.42;1703055;84;20991;-79